createdAt,value
2022-08-28T00:04:00.693Z,23.30
2022-08-28T00:08:02.332Z,23.11
2022-08-28T00:12:05.295Z,23.14
2022-08-28T00:16:07.157Z,23.09
2022-08-28T00:20:11.202Z,22.95
2022-08-28T00:24:12.887Z,22.82
2022-08-28T00:28:24.369Z,23.08
2022-08-28T00:32:27.004Z,23.26
2022-08-28T00:36:30.123Z,23.36
2022-08-28T00:40:33.112Z,23.30
2022-08-28T00:44:36.724Z,23.28
2022-08-28T00:48:38.336Z,23.31
2022-08-28T00:52:40.466Z,23.02
2022-08-28T00:56:42.727Z,23.16
2022-08-28T01:00:44.240Z,23.29
2022-08-28T01:04:45.931Z,23.21
2022-08-28T01:08:50.447Z,23.45
2022-08-28T01:12:56.166Z,23.29
2022-08-28T01:16:58.334Z,23.44
2022-08-28T01:21:20.118Z,23.43
2022-08-28T01:25:24.635Z,23.33
2022-08-28T01:29:28.976Z,23.12
2022-08-28T01:33:30.469Z,23.14
2022-08-28T01:37:32.147Z,23.27
2022-08-28T01:41:34.747Z,23.17
2022-08-28T01:45:39.162Z,23.16
2022-08-28T01:49:40.638Z,22.98
2022-08-28T01:53:43.349Z,23.06
2022-08-28T01:57:51.425Z,23.21
2022-08-28T02:01:53.623Z,23.37
2022-08-28T02:05:55.164Z,23.18
2022-08-28T02:09:56.641Z,23.36
2022-08-28T02:13:59.107Z,23.33
2022-08-28T02:18:01.889Z,23.64
2022-08-28T02:22:08.134Z,23.46
2022-08-28T02:26:11.156Z,23.16
2022-08-28T02:30:14.592Z,23.12
2022-08-28T02:34:16.139Z,23.40
2022-08-28T02:38:17.929Z,23.15
2022-08-28T02:42:20.391Z,23.21
2022-08-28T02:46:21.956Z,23.15
2022-08-28T02:50:24.101Z,23.16
2022-08-28T02:54:29.431Z,23.03
2022-08-28T02:58:32.599Z,22.83
2022-08-28T03:02:34.473Z,23.22
2022-08-28T03:06:36.177Z,22.75
2022-08-28T03:10:37.687Z,22.99
2022-08-28T03:14:39.908Z,23.13
2022-08-28T03:18:41.418Z,23.28
2022-08-28T03:23:02.015Z,23.47
2022-08-28T03:27:04.879Z,23.35
2022-08-28T03:31:08.761Z,23.28
2022-08-28T03:35:11.987Z,23.35
2022-08-28T03:39:13.882Z,23.20
2022-08-28T03:43:19.551Z,23.08
2022-08-28T03:47:21.027Z,23.13
2022-08-28T03:51:29.727Z,23.07
2022-08-28T03:55:31.438Z,22.81
2022-08-28T03:59:33.574Z,22.74
2022-08-28T04:03:36.150Z,22.54
2022-08-28T04:07:37.760Z,22.59
2022-08-28T04:11:42.947Z,22.52
2022-08-28T04:15:44.867Z,22.68
2022-08-28T04:19:46.364Z,22.66
2022-08-28T04:23:48.227Z,22.70
2022-08-28T04:27:51.254Z,22.63
2022-08-28T04:31:53.095Z,22.85
2022-08-28T04:35:55.544Z,22.95
2022-08-28T04:39:57.139Z,22.78
2022-08-28T04:43:59.012Z,22.89
2022-08-28T04:48:00.469Z,22.54
2022-08-28T04:52:07.028Z,22.43
2022-08-28T04:56:11.178Z,22.72
2022-08-28T05:00:12.979Z,22.56
2022-08-28T05:04:14.446Z,22.97
2022-08-28T05:08:18.041Z,22.49
2022-08-28T05:12:19.850Z,22.38
2022-08-28T05:16:22.455Z,22.66
2022-08-28T05:20:23.959Z,22.48
2022-08-28T05:24:25.515Z,22.79
2022-08-28T05:28:27.157Z,22.46
2022-08-28T05:32:28.654Z,22.40
2022-08-28T05:36:34.557Z,22.56
2022-08-28T05:40:43.309Z,22.68
2022-08-28T05:44:44.781Z,22.70
2022-08-28T05:48:48.568Z,22.72
2022-08-28T05:52:50.327Z,22.65
2022-08-28T05:56:51.858Z,22.67
2022-08-28T06:00:53.451Z,22.38
2022-08-28T06:04:54.933Z,22.44
2022-08-28T06:09:24.293Z,22.53
2022-08-28T06:13:29.777Z,22.76
2022-08-28T06:17:31.233Z,22.36
2022-08-28T06:21:33.491Z,22.62
2022-08-28T06:25:46.764Z,22.66
2022-08-28T06:29:48.469Z,22.39
2022-08-28T06:33:49.988Z,22.47
2022-08-28T06:37:51.433Z,22.57
2022-08-28T06:41:53.672Z,23.23
2022-08-28T06:45:57.595Z,22.70
2022-08-28T06:49:59.182Z,23.10
2022-08-28T06:54:01.301Z,22.93
2022-08-28T06:58:04.179Z,22.93
2022-08-28T07:02:06.325Z,23.13
2022-08-28T07:06:09.829Z,22.88
2022-08-28T07:10:11.383Z,22.80
2022-08-28T07:14:13.261Z,22.92
2022-08-28T07:18:15.198Z,22.76
2022-08-28T07:22:16.649Z,22.95
2022-08-28T07:26:22.482Z,22.88
2022-08-28T07:30:23.989Z,23.50
2022-08-28T07:34:26.991Z,23.32
2022-08-28T07:38:29.005Z,23.57
2022-08-28T07:42:49.103Z,23.75
2022-08-28T07:46:56.016Z,23.64
2022-08-28T07:50:57.494Z,23.77
2022-08-28T07:54:59.167Z,23.64
2022-08-28T07:59:01.578Z,23.88
2022-08-28T08:03:03.110Z,23.79
2022-08-28T08:07:06.274Z,23.95
2022-08-28T08:11:11.687Z,23.51
2022-08-28T08:15:18.356Z,23.27
2022-08-28T08:19:20.461Z,23.37
2022-08-28T08:23:21.952Z,23.71
2022-08-28T08:27:24.001Z,23.28
2022-08-28T08:31:29.631Z,23.15
2022-08-28T08:35:31.277Z,23.50
2022-08-28T08:39:34.842Z,22.95
2022-08-28T08:43:57.095Z,23.02
2022-08-28T08:48:01.050Z,23.25
2022-08-28T08:52:11.323Z,22.76
2022-08-28T08:56:16.697Z,22.88
2022-08-28T09:00:19.705Z,22.74
2022-08-28T09:04:46.177Z,22.91
2022-08-28T09:08:52.557Z,23.42
2022-08-28T09:13:03.019Z,23.16
2022-08-28T09:17:06.841Z,23.34
2022-08-28T09:21:08.600Z,22.99
2022-08-28T09:25:12.569Z,22.67
2022-08-28T09:29:18.934Z,23.06
2022-08-28T09:33:42.169Z,22.60
2022-08-28T09:37:44.142Z,22.66
2022-08-28T09:42:16.386Z,22.98
2022-08-28T09:46:27.907Z,22.90
2022-08-28T09:50:43.371Z,23.39
2022-08-28T09:54:45.459Z,23.52
2022-08-28T09:58:52.014Z,23.51
2022-08-28T10:03:07.436Z,23.34
2022-08-28T10:07:26.915Z,23.27
2022-08-28T10:11:28.614Z,23.43
2022-08-28T10:15:43.805Z,23.31
2022-08-28T10:20:10.360Z,23.36
2022-08-28T10:24:53.607Z,23.99
2022-08-28T10:29:21.835Z,24.03
2022-08-28T10:33:35.437Z,23.81
2022-08-28T10:38:00.514Z,23.88
2022-08-28T10:42:04.637Z,23.74
2022-08-28T10:46:24.138Z,23.94
2022-08-28T10:50:45.115Z,23.87
2022-08-28T10:55:01.208Z,23.68
2022-08-28T10:59:02.699Z,23.33
2022-08-28T11:03:32.923Z,23.71
2022-08-28T11:07:41.475Z,23.69
2022-08-28T11:11:44.869Z,23.48
2022-08-28T11:15:51.691Z,22.80
2022-08-28T11:20:12.122Z,23.14
2022-08-28T11:24:35.818Z,23.21
2022-08-28T11:28:42.934Z,23.18
2022-08-28T11:32:50.404Z,23.65
2022-08-28T11:37:01.164Z,23.58
2022-08-28T11:41:14.411Z,23.40
2022-08-28T11:45:48.106Z,23.14
2022-08-28T11:49:49.703Z,23.32
2022-08-28T11:54:03.751Z,23.66
2022-08-28T11:58:17.704Z,23.49
2022-08-28T12:03:07.547Z,23.94
2022-08-28T12:07:11.721Z,23.94
2022-08-28T12:11:40.956Z,24.41
2022-08-28T12:15:42.894Z,24.81
2022-08-28T12:19:55.866Z,25.14
2022-08-28T12:24:07.223Z,25.26
2022-08-28T12:28:24.266Z,25.23
2022-08-28T12:32:47.797Z,24.88
2022-08-28T12:37:01.492Z,25.08
2022-08-28T12:41:03.185Z,24.80
2022-08-28T12:45:08.659Z,25.39
2022-08-28T12:49:30.902Z,25.05
2022-08-28T12:53:44.740Z,25.52
2022-08-28T12:57:47.916Z,25.47
2022-08-28T13:01:50.218Z,26.01
2022-08-28T13:06:04.756Z,25.59
2022-08-28T13:10:24.888Z,25.66
2022-08-28T13:14:38.325Z,25.86
2022-08-28T13:18:44.041Z,25.85
2022-08-28T13:22:50.841Z,26.06
2022-08-28T13:27:17.060Z,25.95
2022-08-28T13:31:25.696Z,25.47
2022-08-28T13:35:30.660Z,26.23
2022-08-28T13:39:33.559Z,25.80
2022-08-28T13:43:46.423Z,26.09
2022-08-28T13:47:47.913Z,25.54
2022-08-28T13:51:50.340Z,26.12
2022-08-28T13:55:52.921Z,25.56
2022-08-28T13:59:55.775Z,26.12
2022-08-28T14:03:58.819Z,25.58
2022-08-28T14:08:00.382Z,25.76
2022-08-28T14:12:02.894Z,26.33
2022-08-28T14:16:06.867Z,25.70
2022-08-28T14:20:09.114Z,26.20
2022-08-28T14:24:11.149Z,26.14
2022-08-28T14:28:16.675Z,25.64
2022-08-28T14:32:18.373Z,26.28
2022-08-28T14:36:22.906Z,26.22
2022-08-28T14:40:24.480Z,25.38
2022-08-28T14:44:26.279Z,25.40
2022-08-28T14:48:27.863Z,25.16
2022-08-28T14:52:29.729Z,25.59
2022-08-28T14:56:32.494Z,25.75
2022-08-28T15:00:39.106Z,25.78
2022-08-28T15:04:40.759Z,25.77
2022-08-28T15:08:42.264Z,25.58
2022-08-28T15:12:43.763Z,25.80
2022-08-28T15:16:47.787Z,25.85
2022-08-28T15:20:49.243Z,25.58
2022-08-28T15:24:53.168Z,25.36
2022-08-28T15:29:02.224Z,25.33
2022-08-28T15:33:04.655Z,25.47
2022-08-28T15:37:07.791Z,25.33
2022-08-28T15:41:24.856Z,25.71
2022-08-28T15:45:27.034Z,25.95
2022-08-28T15:49:30.898Z,25.53
2022-08-28T15:53:34.623Z,25.85
2022-08-28T15:57:36.411Z,25.57
2022-08-28T16:01:38.394Z,25.32
2022-08-28T16:05:40.869Z,25.40
2022-08-28T16:09:42.626Z,26.04
2022-08-28T16:13:45.114Z,26.06
2022-08-28T16:17:46.597Z,25.73
2022-08-28T16:21:48.126Z,25.76
2022-08-28T16:25:49.721Z,25.64
2022-08-28T16:29:52.822Z,25.48
2022-08-28T16:33:54.717Z,25.39
2022-08-28T16:37:56.300Z,25.63
2022-08-28T16:41:58.374Z,25.53
2022-08-28T16:45:59.854Z,25.25
2022-08-28T16:50:04.574Z,25.61
2022-08-28T16:54:06.875Z,25.26
2022-08-28T16:58:08.435Z,25.10
2022-08-28T17:02:10.190Z,25.57
2022-08-28T17:06:20.547Z,25.71
2022-08-28T17:10:25.096Z,25.07
2022-08-28T17:14:26.674Z,24.91
2022-08-28T17:18:28.783Z,24.69
2022-08-28T17:22:32.890Z,24.73
2022-08-28T17:26:34.536Z,24.74
2022-08-28T17:30:36.132Z,24.30
2022-08-28T17:34:37.722Z,24.10
2022-08-28T17:38:39.716Z,23.83
2022-08-28T17:42:42.103Z,23.46
2022-08-28T17:46:44.973Z,23.52
2022-08-28T17:50:46.500Z,23.76
2022-08-28T17:54:47.957Z,23.53
2022-08-28T17:58:49.640Z,23.60
2022-08-28T18:02:52.152Z,23.32
2022-08-28T18:06:54.340Z,23.42
2022-08-28T18:10:56.269Z,23.45
2022-08-28T18:14:58.190Z,23.07
2022-08-28T18:19:01.082Z,23.21
2022-08-28T18:23:02.959Z,23.34
2022-08-28T18:27:04.954Z,23.25
2022-08-28T18:31:06.711Z,23.40
2022-08-28T18:35:08.293Z,23.11
2022-08-28T18:39:10.454Z,23.04
2022-08-28T18:43:12.396Z,23.04
2022-08-28T18:47:13.946Z,23.10
2022-08-28T18:51:15.765Z,23.26
2022-08-28T18:55:25.223Z,22.86
2022-08-28T18:59:27.546Z,23.04
2022-08-28T19:03:29.830Z,23.18
2022-08-28T19:07:31.455Z,23.12
2022-08-28T19:11:33.270Z,22.86
2022-08-28T19:15:35.991Z,23.03
2022-08-28T19:19:38.165Z,22.84
2022-08-28T19:23:39.851Z,22.87
2022-08-28T19:27:46.545Z,23.03
2022-08-28T19:31:52.292Z,22.86
2022-08-28T19:35:54.948Z,23.06
2022-08-28T19:39:57.044Z,23.29
2022-08-28T19:43:58.594Z,23.20
2022-08-28T19:48:00.168Z,23.18
2022-08-28T19:52:03.135Z,22.65
2022-08-28T19:56:06.444Z,22.82
2022-08-28T20:00:09.749Z,23.00
2022-08-28T20:04:16.646Z,22.81
2022-08-28T20:08:19.936Z,23.07
2022-08-28T20:12:21.385Z,22.78
2022-08-28T20:16:24.333Z,22.94
2022-08-28T20:20:29.860Z,23.13
2022-08-28T20:24:31.618Z,23.08
2022-08-28T20:28:33.086Z,23.10
2022-08-28T20:32:35.015Z,22.68
2022-08-28T20:36:41.900Z,22.81
2022-08-28T20:40:43.391Z,22.70
2022-08-28T20:44:44.915Z,22.49
2022-08-28T20:48:46.612Z,22.55
2022-08-28T20:52:48.146Z,22.30
2022-08-28T20:56:51.480Z,22.16
2022-08-28T21:00:53.809Z,22.20
2022-08-28T21:05:01.300Z,22.30
2022-08-28T21:09:02.849Z,22.17
2022-08-28T21:13:05.892Z,22.30
2022-08-28T21:17:07.629Z,22.09
2022-08-28T21:21:10.439Z,21.78
2022-08-28T21:25:13.398Z,21.97
2022-08-28T21:29:15.455Z,22.08
2022-08-28T21:33:16.922Z,21.94
2022-08-28T21:37:18.724Z,21.76
2022-08-28T21:41:20.402Z,21.98
2022-08-28T21:45:22.355Z,22.01
2022-08-28T21:49:24.047Z,21.82
2022-08-28T21:53:25.533Z,21.95
2022-08-28T21:57:27.967Z,21.64
2022-08-28T22:01:29.547Z,21.79
2022-08-28T22:05:31.056Z,21.76
2022-08-28T22:09:32.804Z,21.45
2022-08-28T22:13:34.314Z,21.59
2022-08-28T22:17:35.769Z,21.65
2022-08-28T22:21:56.329Z,21.52
2022-08-28T22:25:57.777Z,21.57
2022-08-28T22:29:59.736Z,21.61
2022-08-28T22:34:03.044Z,21.41
2022-08-28T22:38:07.517Z,21.73
2022-08-28T22:42:10.026Z,21.45
2022-08-28T22:46:12.341Z,21.65
2022-08-28T22:50:14.003Z,21.63
2022-08-28T22:54:16.759Z,21.74
2022-08-28T22:58:18.234Z,21.56
2022-08-28T23:02:21.260Z,21.50
2022-08-28T23:06:22.767Z,21.21
2022-08-28T23:10:42.033Z,21.50
2022-08-28T23:14:48.633Z,21.45
2022-08-28T23:19:07.278Z,21.74
2022-08-28T23:23:11.360Z,21.83
2022-08-28T23:27:34.804Z,21.75
2022-08-28T23:31:35.655Z,21.64
2022-08-28T23:35:37.337Z,21.72
2022-08-28T23:39:38.881Z,21.60
2022-08-28T23:43:40.349Z,21.60
2022-08-28T23:47:44.812Z,21.52
2022-08-28T23:51:46.304Z,21.52
2022-08-28T23:55:48.785Z,21.63
2022-08-28T23:59:50.292Z,21.72
